SWA1793 KLAS-KBOI
Flight info
| Callsign | SWA1793 |
|---|---|
| Flight time | 1h 22m |
| Altitude | 36000 |
| Route | RATPK3 FRNCK CRITO SPATS BROPH SPUUD4 |
| Aircraft | B737/M-SDE2E3FGHIRWXY/LB1 |
Departure
| Time | 2026-05-09 04:10 |
|---|---|
| Airport | Harry Reid International Airport (KLAS) |
Arrival
| Time | 2026-05-09 05:32 |
|---|---|
| Airport | Boise Air Terminal/Gowen Field (KBOI) |
| Time | Latitude | Longitude | Altitude | Speed | Heading |
|---|---|---|---|---|---|
| 2026-05-09 03:51 | 36.08270 | -115.15224 | 2187 ft | 0 kts | 335° |
| 2026-05-09 03:59 | 36.08258 | -115.15217 | 2191 ft | 4 kts | 342° |
| 2026-05-09 03:59 | 36.08231 | -115.15212 | 2187 ft | 4 kts | 5° |
| 2026-05-09 04:00 | 36.08205 | -115.15217 | 2187 ft | 3 kts | 6° |
| 2026-05-09 04:00 | 36.08185 | -115.15220 | 2187 ft | 2 kts | 5° |
| 2026-05-09 04:00 | 36.08183 | -115.15220 | 2187 ft | 0 kts | 5° |
| 2026-05-09 04:02 | 36.08188 | -115.15218 | 2190 ft | 2 kts | 12° |
| 2026-05-09 04:03 | 36.08193 | -115.15205 | 2187 ft | 2 kts | 82° |
| 2026-05-09 04:03 | 36.08185 | -115.15173 | 2187 ft | 7 kts | 114° |
| 2026-05-09 04:03 | 36.08134 | -115.15137 | 2187 ft | 10 kts | 157° |
| 2026-05-09 04:03 | 36.08071 | -115.15116 | 2191 ft | 11 kts | 178° |
| 2026-05-09 04:04 | 36.07978 | -115.15113 | 2190 ft | 16 kts | 177° |
| 2026-05-09 04:04 | 36.07881 | -115.15075 | 2190 ft | 15 kts | 120° |
| 2026-05-09 04:04 | 36.07868 | -115.14947 | 2189 ft | 15 kts | 95° |
| 2026-05-09 04:04 | 36.07860 | -115.14822 | 2190 ft | 14 kts | 94° |
| 2026-05-09 04:05 | 36.07851 | -115.14695 | 2187 ft | 16 kts | 95° |
| 2026-05-09 04:05 | 36.07841 | -115.14537 | 2188 ft | 19 kts | 94° |
| 2026-05-09 04:05 | 36.07830 | -115.14374 | 2190 ft | 19 kts | 94° |
| 2026-05-09 04:05 | 36.07828 | -115.14216 | 2188 ft | 18 kts | 76° |
| 2026-05-09 04:06 | 36.07828 | -115.14065 | 2191 ft | 17 kts | 90° |
| 2026-05-09 04:06 | 36.07828 | -115.13919 | 2189 ft | 17 kts | 90° |
| 2026-05-09 04:06 | 36.07828 | -115.13779 | 2189 ft | 16 kts | 90° |
| 2026-05-09 04:06 | 36.07828 | -115.13643 | 2190 ft | 15 kts | 90° |
| 2026-05-09 04:07 | 36.07828 | -115.13501 | 2191 ft | 18 kts | 90° |
| 2026-05-09 04:07 | 36.07828 | -115.13390 | 2190 ft | 21 kts | 90° |
| 2026-05-09 04:07 | 36.07828 | -115.13198 | 2190 ft | 24 kts | 90° |
| 2026-05-09 04:07 | 36.07829 | -115.12993 | 2187 ft | 23 kts | 90° |
| 2026-05-09 04:08 | 36.07828 | -115.12797 | 2187 ft | 22 kts | 90° |
| 2026-05-09 04:08 | 36.07829 | -115.12607 | 2187 ft | 22 kts | 89° |
| 2026-05-09 04:08 | 36.07828 | -115.12422 | 2187 ft | 21 kts | 89° |
| 2026-05-09 04:08 | 36.07813 | -115.12246 | 2187 ft | 21 kts | 121° |
| 2026-05-09 04:09 | 36.07717 | -115.12128 | 2188 ft | 18 kts | 165° |
| 2026-05-09 04:09 | 36.07643 | -115.12168 | 2189 ft | 10 kts | 262° |
| 2026-05-09 04:09 | 36.07642 | -115.12344 | 2187 ft | 47 kts | 270° |
| 2026-05-09 04:09 | 36.07641 | -115.13065 | 2189 ft | 119 kts | 270° |
| 2026-05-09 04:10 | 36.07630 | -115.14341 | 2206 ft | 175 kts | 269° |
| 2026-05-09 04:10 | 36.07633 | -115.15928 | 2802 ft | 187 kts | 269° |
| 2026-05-09 04:10 | 36.07640 | -115.17533 | 3752 ft | 188 kts | 268° |
| 2026-05-09 04:10 | 36.07659 | -115.19199 | 4409 ft | 201 kts | 269° |
| 2026-05-09 04:11 | 36.07647 | -115.21018 | 4827 ft | 224 kts | 268° |
| 2026-05-09 04:11 | 36.07626 | -115.23021 | 5310 ft | 240 kts | 269° |
| 2026-05-09 04:11 | 36.07602 | -115.25096 | 6127 ft | 241 kts | 272° |
| 2026-05-09 04:11 | 36.07937 | -115.27125 | 6934 ft | 246 kts | 292° |
| 2026-05-09 04:12 | 36.08923 | -115.28909 | 7565 ft | 259 kts | 315° |
| 2026-05-09 04:12 | 36.10444 | -115.30138 | 8288 ft | 269 kts | 340° |
| 2026-05-09 04:12 | 36.12294 | -115.30626 | 9019 ft | 275 kts | 348° |
| 2026-05-09 04:12 | 36.14205 | -115.30760 | 9822 ft | 279 kts | 8° |
| 2026-05-09 04:13 | 36.16000 | -115.29847 | 10585 ft | 286 kts | 36° |
| 2026-05-09 04:13 | 36.17386 | -115.27969 | 10950 ft | 310 kts | 59° |
| 2026-05-09 04:13 | 36.18265 | -115.25455 | 11386 ft | 328 kts | 70° |
| 2026-05-09 04:13 | 36.18817 | -115.22648 | 11878 ft | 342 kts | 78° |
| 2026-05-09 04:14 | 36.19156 | -115.19783 | 13125 ft | 328 kts | 82° |
| 2026-05-09 04:14 | 36.19420 | -115.17010 | 14217 ft | 324 kts | 81° |
| 2026-05-09 04:14 | 36.19611 | -115.14174 | 14748 ft | 340 kts | 86° |
| 2026-05-09 04:14 | 36.19668 | -115.11151 | 14968 ft | 364 kts | 89° |
| 2026-05-09 04:15 | 36.19665 | -115.07925 | 15205 ft | 384 kts | 89° |
| 2026-05-09 04:15 | 36.19645 | -115.04582 | 15744 ft | 393 kts | 89° |
| 2026-05-09 04:15 | 36.19629 | -115.01183 | 16467 ft | 396 kts | 89° |
| 2026-05-09 04:15 | 36.19621 | -114.97757 | 17198 ft | 399 kts | 89° |
| 2026-05-09 04:16 | 36.19619 | -114.94312 | 17862 ft | 403 kts | 89° |
| 2026-05-09 04:16 | 36.19659 | -114.90825 | 18473 ft | 407 kts | 83° |
| 2026-05-09 04:16 | 36.20366 | -114.87431 | 19056 ft | 409 kts | 64° |
| 2026-05-09 04:16 | 36.21882 | -114.84456 | 19709 ft | 409 kts | 50° |
| 2026-05-09 04:17 | 36.23699 | -114.81728 | 20337 ft | 412 kts | 48° |
| 2026-05-09 04:17 | 36.25573 | -114.79008 | 20849 ft | 418 kts | 47° |
| 2026-05-09 04:17 | 36.27440 | -114.76290 | 21376 ft | 423 kts | 47° |
| 2026-05-09 04:17 | 36.29342 | -114.73481 | 21964 ft | 426 kts | 48° |
| 2026-05-09 04:18 | 36.31241 | -114.70638 | 22510 ft | 430 kts | 48° |
| 2026-05-09 04:18 | 36.33144 | -114.67768 | 23011 ft | 434 kts | 48° |
| 2026-05-09 04:18 | 36.35070 | -114.64858 | 23493 ft | 437 kts | 48° |
| 2026-05-09 04:18 | 36.37043 | -114.61970 | 23939 ft | 440 kts | 43° |
| 2026-05-09 04:19 | 36.39363 | -114.59492 | 24376 ft | 441 kts | 35° |
| 2026-05-09 04:19 | 36.41833 | -114.57227 | 24845 ft | 443 kts | 33° |
| 2026-05-09 04:19 | 36.44335 | -114.54989 | 25338 ft | 444 kts | 33° |
| 2026-05-09 04:19 | 36.46841 | -114.52706 | 25789 ft | 447 kts | 34° |
| 2026-05-09 04:20 | 36.49339 | -114.50373 | 26198 ft | 451 kts | 34° |
| 2026-05-09 04:20 | 36.51838 | -114.47998 | 26613 ft | 453 kts | 35° |
| 2026-05-09 04:20 | 36.54350 | -114.45609 | 27015 ft | 456 kts | 34° |
| 2026-05-09 04:20 | 36.56956 | -114.43364 | 27410 ft | 457 kts | 30° |
| 2026-05-09 04:21 | 36.59652 | -114.41255 | 27794 ft | 459 kts | 28° |
| 2026-05-09 04:21 | 36.62391 | -114.39195 | 28158 ft | 461 kts | 28° |
| 2026-05-09 04:21 | 36.67914 | -114.35056 | 28866 ft | 466 kts | 28° |
| 2026-05-09 04:22 | 36.70687 | -114.32945 | 29198 ft | 468 kts | 28° |
| 2026-05-09 04:22 | 36.73466 | -114.30809 | 29535 ft | 470 kts | 29° |
| 2026-05-09 04:22 | 36.76254 | -114.28649 | 29867 ft | 472 kts | 29° |
| 2026-05-09 04:22 | 36.79042 | -114.26481 | 30220 ft | 473 kts | 29° |
| 2026-05-09 04:23 | 36.81830 | -114.24308 | 30687 ft | 472 kts | 29° |
| 2026-05-09 04:23 | 36.84600 | -114.22147 | 31238 ft | 468 kts | 29° |
| 2026-05-09 04:23 | 36.87348 | -114.20000 | 31771 ft | 464 kts | 29° |
| 2026-05-09 04:23 | 36.90080 | -114.17865 | 32224 ft | 462 kts | 29° |
| 2026-05-09 04:24 | 36.92806 | -114.15734 | 32597 ft | 462 kts | 29° |
| 2026-05-09 04:24 | 36.95528 | -114.13605 | 32965 ft | 461 kts | 28° |
| 2026-05-09 04:24 | 36.98244 | -114.11481 | 33382 ft | 459 kts | 28° |
| 2026-05-09 04:24 | 37.00944 | -114.09367 | 33799 ft | 457 kts | 28° |
| 2026-05-09 04:25 | 37.03634 | -114.07257 | 34187 ft | 455 kts | 28° |
| 2026-05-09 04:25 | 37.06312 | -114.05156 | 34556 ft | 453 kts | 28° |
| 2026-05-09 04:25 | 37.08979 | -114.03062 | 34895 ft | 452 kts | 28° |
| 2026-05-09 04:25 | 37.11604 | -114.00999 | 35237 ft | 451 kts | 28° |
| 2026-05-09 04:26 | 37.14211 | -113.98949 | 35573 ft | 449 kts | 28° |
| 2026-05-09 04:26 | 37.16856 | -113.96868 | 35865 ft | 449 kts | 28° |
| 2026-05-09 04:26 | 37.19503 | -113.94783 | 35922 ft | 451 kts | 28° |
| 2026-05-09 04:27 | 37.24818 | -113.90592 | 35931 ft | 450 kts | 28° |
| 2026-05-09 04:27 | 37.30093 | -113.86422 | 35938 ft | 447 kts | 28° |
| 2026-05-09 04:28 | 37.35337 | -113.82273 | 35943 ft | 444 kts | 28° |
| 2026-05-09 04:28 | 37.40554 | -113.78137 | 35954 ft | 443 kts | 28° |
| 2026-05-09 04:29 | 37.45756 | -113.74005 | 35969 ft | 443 kts | 28° |
| 2026-05-09 04:29 | 37.50974 | -113.69856 | 35992 ft | 444 kts | 28° |
| 2026-05-09 04:30 | 37.56202 | -113.65690 | 35999 ft | 446 kts | 28° |
| 2026-05-09 04:30 | 37.61463 | -113.61491 | 36017 ft | 448 kts | 28° |
| 2026-05-09 04:31 | 37.67023 | -113.58213 | 36046 ft | 437 kts | 5° |
| 2026-05-09 04:31 | 37.69993 | -113.58059 | 36033 ft | 432 kts | 352° |
| 2026-05-09 04:31 | 37.72905 | -113.58817 | 36042 ft | 427 kts | 338° |
| 2026-05-09 04:32 | 37.78302 | -113.61911 | 36073 ft | 426 kts | 332° |
| 2026-05-09 04:32 | 37.83642 | -113.65225 | 36069 ft | 428 kts | 332° |
| 2026-05-09 04:33 | 37.89011 | -113.68520 | 35687 ft | 433 kts | 333° |
| 2026-05-09 04:33 | 37.91722 | -113.70162 | 35333 ft | 429 kts | 333° |
| 2026-05-09 04:33 | 37.94426 | -113.71792 | 35240 ft | 431 kts | 333° |
| 2026-05-09 04:33 | 37.97132 | -113.73422 | 35117 ft | 430 kts | 333° |
| 2026-05-09 04:34 | 37.99826 | -113.75042 | 35081 ft | 427 kts | 333° |
| 2026-05-09 04:34 | 38.05198 | -113.78275 | 35075 ft | 429 kts | 333° |
| 2026-05-09 04:35 | 38.10601 | -113.81535 | 35069 ft | 431 kts | 333° |
| 2026-05-09 04:35 | 38.16029 | -113.84815 | 35061 ft | 432 kts | 333° |
| 2026-05-09 04:36 | 38.21469 | -113.88108 | 35065 ft | 433 kts | 333° |
| 2026-05-09 04:36 | 38.24174 | -113.89747 | 35233 ft | 427 kts | 333° |
| 2026-05-09 04:36 | 38.26837 | -113.91362 | 35508 ft | 423 kts | 333° |
| 2026-05-09 04:36 | 38.29490 | -113.92972 | 35788 ft | 422 kts | 333° |
| 2026-05-09 04:37 | 38.32138 | -113.94582 | 36048 ft | 422 kts | 333° |
| 2026-05-09 04:37 | 38.37489 | -113.97840 | 36078 ft | 428 kts | 333° |
| 2026-05-09 04:38 | 38.42850 | -114.01108 | 36076 ft | 426 kts | 332° |
| 2026-05-09 04:38 | 38.48142 | -114.04339 | 36069 ft | 423 kts | 332° |
| 2026-05-09 04:39 | 38.53435 | -114.07573 | 36075 ft | 421 kts | 332° |
| 2026-05-09 04:39 | 38.58709 | -114.10800 | 36077 ft | 420 kts | 332° |
| 2026-05-09 04:40 | 38.63970 | -114.14031 | 36085 ft | 419 kts | 332° |
| 2026-05-09 04:40 | 38.69215 | -114.17256 | 36095 ft | 418 kts | 332° |
| 2026-05-09 04:41 | 38.74469 | -114.20489 | 36108 ft | 420 kts | 332° |
| 2026-05-09 04:41 | 38.79745 | -114.23742 | 36107 ft | 421 kts | 331° |
| 2026-05-09 04:42 | 38.85033 | -114.27007 | 36112 ft | 423 kts | 331° |
| 2026-05-09 04:42 | 38.90347 | -114.30295 | 36120 ft | 424 kts | 331° |
| 2026-05-09 04:43 | 38.95671 | -114.33594 | 36126 ft | 426 kts | 331° |
| 2026-05-09 04:43 | 39.01023 | -114.36915 | 36140 ft | 428 kts | 331° |
| 2026-05-09 04:44 | 39.06386 | -114.40250 | 36137 ft | 429 kts | 331° |
| 2026-05-09 04:44 | 39.11720 | -114.43574 | 36146 ft | 428 kts | 330° |
| 2026-05-09 04:45 | 39.17074 | -114.46912 | 36142 ft | 427 kts | 330° |
| 2026-05-09 04:45 | 39.22406 | -114.50243 | 36151 ft | 425 kts | 330° |
| 2026-05-09 04:46 | 39.27748 | -114.53490 | 36146 ft | 426 kts | 335° |
| 2026-05-09 04:46 | 39.33554 | -114.55243 | 36149 ft | 435 kts | 351° |
| 2026-05-09 04:47 | 39.39617 | -114.55525 | 36154 ft | 437 kts | 353° |
| 2026-05-09 04:47 | 39.45691 | -114.55694 | 36152 ft | 437 kts | 353° |
| 2026-05-09 04:48 | 39.51764 | -114.55898 | 36162 ft | 437 kts | 353° |
| 2026-05-09 04:48 | 39.57853 | -114.56137 | 36166 ft | 438 kts | 353° |
| 2026-05-09 04:49 | 39.63951 | -114.56387 | 36162 ft | 439 kts | 353° |
| 2026-05-09 04:49 | 39.70061 | -114.56640 | 36154 ft | 440 kts | 353° |
| 2026-05-09 04:50 | 39.76195 | -114.56893 | 36141 ft | 442 kts | 353° |
| 2026-05-09 04:50 | 39.82347 | -114.57146 | 36133 ft | 442 kts | 353° |
| 2026-05-09 04:51 | 39.88509 | -114.57400 | 36137 ft | 443 kts | 353° |
| 2026-05-09 04:51 | 39.94671 | -114.57656 | 36120 ft | 443 kts | 353° |
| 2026-05-09 04:52 | 40.00835 | -114.57911 | 36118 ft | 443 kts | 353° |
| 2026-05-09 04:52 | 40.07000 | -114.58167 | 36113 ft | 444 kts | 352° |
| 2026-05-09 04:53 | 40.13171 | -114.58424 | 36109 ft | 444 kts | 352° |
| 2026-05-09 04:53 | 40.19344 | -114.58681 | 36099 ft | 444 kts | 352° |
| 2026-05-09 04:54 | 40.25510 | -114.58937 | 36106 ft | 443 kts | 352° |
| 2026-05-09 04:54 | 40.31666 | -114.59196 | 36099 ft | 443 kts | 352° |
| 2026-05-09 04:55 | 40.37829 | -114.59453 | 36094 ft | 444 kts | 352° |
| 2026-05-09 04:55 | 40.42964 | -114.59669 | 36089 ft | 444 kts | 352° |
| 2026-05-09 04:56 | 40.50137 | -114.59971 | 36081 ft | 444 kts | 352° |
| 2026-05-09 04:56 | 40.56300 | -114.60230 | 36083 ft | 443 kts | 352° |
| 2026-05-09 04:57 | 40.62459 | -114.60490 | 36085 ft | 443 kts | 352° |
| 2026-05-09 04:57 | 40.67621 | -114.60709 | 36078 ft | 443 kts | 352° |
| 2026-05-09 04:58 | 40.73786 | -114.60970 | 36085 ft | 444 kts | 352° |
| 2026-05-09 04:58 | 40.79909 | -114.61567 | 36082 ft | 440 kts | 348° |
| 2026-05-09 04:59 | 40.86001 | -114.62424 | 36085 ft | 441 kts | 348° |
| 2026-05-09 04:59 | 40.92112 | -114.63285 | 36069 ft | 442 kts | 348° |
| 2026-05-09 05:00 | 40.98249 | -114.64113 | 36055 ft | 444 kts | 348° |
| 2026-05-09 05:00 | 41.04394 | -114.64924 | 36057 ft | 444 kts | 348° |
| 2026-05-09 05:01 | 41.10537 | -114.65731 | 36050 ft | 443 kts | 348° |
| 2026-05-09 05:01 | 41.16630 | -114.66534 | 36060 ft | 443 kts | 348° |
| 2026-05-09 05:02 | 41.22765 | -114.67345 | 36054 ft | 443 kts | 348° |
| 2026-05-09 05:02 | 41.28902 | -114.68159 | 36040 ft | 443 kts | 348° |
| 2026-05-09 05:03 | 41.35027 | -114.68972 | 36077 ft | 442 kts | 348° |
| 2026-05-09 05:03 | 41.41140 | -114.69787 | 36084 ft | 442 kts | 348° |
| 2026-05-09 05:04 | 41.47263 | -114.70605 | 36101 ft | 442 kts | 348° |
| 2026-05-09 05:04 | 41.53394 | -114.71425 | 36090 ft | 444 kts | 348° |
| 2026-05-09 05:05 | 41.59542 | -114.72245 | 36093 ft | 445 kts | 348° |
| 2026-05-09 05:05 | 41.65713 | -114.73075 | 36090 ft | 446 kts | 348° |
| 2026-05-09 05:06 | 41.71883 | -114.73903 | 36093 ft | 446 kts | 348° |
| 2026-05-09 05:06 | 41.78055 | -114.74731 | 36095 ft | 445 kts | 348° |
| 2026-05-09 05:07 | 41.84223 | -114.75563 | 36084 ft | 445 kts | 348° |
| 2026-05-09 05:07 | 41.90376 | -114.76394 | 36095 ft | 444 kts | 348° |
| 2026-05-09 05:08 | 41.96523 | -114.77225 | 36089 ft | 444 kts | 348° |
| 2026-05-09 05:08 | 42.02678 | -114.78066 | 36044 ft | 445 kts | 347° |
| 2026-05-09 05:09 | 42.08851 | -114.78907 | 36043 ft | 446 kts | 347° |
| 2026-05-09 05:09 | 42.15023 | -114.79746 | 36037 ft | 445 kts | 347° |
| 2026-05-09 05:10 | 42.21186 | -114.80586 | 36069 ft | 446 kts | 347° |
| 2026-05-09 05:10 | 42.27375 | -114.81433 | 36071 ft | 448 kts | 347° |
| 2026-05-09 05:11 | 42.33582 | -114.82283 | 36082 ft | 449 kts | 347° |
| 2026-05-09 05:11 | 42.39782 | -114.83137 | 35695 ft | 457 kts | 348° |
| 2026-05-09 05:11 | 42.42964 | -114.83580 | 35032 ft | 459 kts | 348° |
| 2026-05-09 05:12 | 42.46140 | -114.84016 | 34245 ft | 459 kts | 348° |
| 2026-05-09 05:12 | 42.49323 | -114.84452 | 33441 ft | 460 kts | 348° |
| 2026-05-09 05:12 | 42.52516 | -114.84891 | 32589 ft | 462 kts | 348° |
| 2026-05-09 05:12 | 42.55719 | -114.85332 | 31689 ft | 464 kts | 348° |
| 2026-05-09 05:13 | 42.58934 | -114.85776 | 30861 ft | 464 kts | 348° |
| 2026-05-09 05:13 | 42.62124 | -114.86215 | 30239 ft | 459 kts | 348° |
| 2026-05-09 05:13 | 42.65283 | -114.86651 | 29586 ft | 454 kts | 348° |
| 2026-05-09 05:13 | 42.68404 | -114.87088 | 28936 ft | 448 kts | 347° |
| 2026-05-09 05:14 | 42.71352 | -114.88142 | 28267 ft | 431 kts | 331° |
| 2026-05-09 05:14 | 42.73893 | -114.90151 | 27437 ft | 420 kts | 316° |
| 2026-05-09 05:14 | 42.75961 | -114.92871 | 26817 ft | 409 kts | 310° |
| 2026-05-09 05:14 | 42.77897 | -114.95686 | 26132 ft | 405 kts | 309° |
| 2026-05-09 05:15 | 42.79793 | -114.98486 | 25500 ft | 400 kts | 309° |
| 2026-05-09 05:15 | 42.81672 | -115.01245 | 24877 ft | 395 kts | 309° |
| 2026-05-09 05:15 | 42.83538 | -115.03958 | 24257 ft | 390 kts | 310° |
| 2026-05-09 05:15 | 42.85387 | -115.06629 | 23663 ft | 385 kts | 310° |
| 2026-05-09 05:16 | 42.87218 | -115.09260 | 23049 ft | 380 kts | 310° |
| 2026-05-09 05:16 | 42.89024 | -115.11858 | 22465 ft | 375 kts | 310° |
| 2026-05-09 05:16 | 42.90812 | -115.14431 | 21861 ft | 371 kts | 310° |
| 2026-05-09 05:16 | 42.92575 | -115.16977 | 21261 ft | 368 kts | 310° |
| 2026-05-09 05:17 | 42.94320 | -115.19506 | 20675 ft | 364 kts | 310° |
| 2026-05-09 05:17 | 42.96046 | -115.22012 | 20081 ft | 360 kts | 310° |
| 2026-05-09 05:17 | 42.97750 | -115.24489 | 19502 ft | 357 kts | 310° |
| 2026-05-09 05:17 | 42.99442 | -115.26949 | 18919 ft | 353 kts | 310° |
| 2026-05-09 05:18 | 43.01115 | -115.29383 | 18352 ft | 349 kts | 310° |
| 2026-05-09 05:18 | 43.02770 | -115.31794 | 17782 ft | 346 kts | 310° |
| 2026-05-09 05:18 | 43.04413 | -115.34189 | 17181 ft | 344 kts | 310° |
| 2026-05-09 05:18 | 43.06044 | -115.36570 | 16601 ft | 342 kts | 310° |
| 2026-05-09 05:19 | 43.07664 | -115.38936 | 16040 ft | 339 kts | 310° |
| 2026-05-09 05:19 | 43.09269 | -115.41280 | 15470 ft | 336 kts | 310° |
| 2026-05-09 05:19 | 43.10860 | -115.43607 | 14914 ft | 333 kts | 310° |
| 2026-05-09 05:19 | 43.12438 | -115.45916 | 14360 ft | 331 kts | 310° |
| 2026-05-09 05:20 | 43.14000 | -115.48204 | 13798 ft | 328 kts | 310° |
| 2026-05-09 05:20 | 43.15552 | -115.50478 | 13200 ft | 326 kts | 310° |
| 2026-05-09 05:20 | 43.17097 | -115.52739 | 12638 ft | 324 kts | 311° |
| 2026-05-09 05:20 | 43.18627 | -115.54974 | 12365 ft | 314 kts | 311° |
| 2026-05-09 05:21 | 43.20086 | -115.57109 | 12212 ft | 300 kts | 311° |
| 2026-05-09 05:21 | 43.21467 | -115.59132 | 12079 ft | 288 kts | 311° |
| 2026-05-09 05:21 | 43.22807 | -115.61096 | 11919 ft | 277 kts | 310° |
| 2026-05-09 05:21 | 43.24118 | -115.63023 | 11533 ft | 275 kts | 311° |
| 2026-05-09 05:22 | 43.25418 | -115.64934 | 11158 ft | 273 kts | 311° |
| 2026-05-09 05:22 | 43.26714 | -115.66837 | 10765 ft | 273 kts | 311° |
| 2026-05-09 05:22 | 43.28029 | -115.68713 | 10356 ft | 273 kts | 314° |
| 2026-05-09 05:22 | 43.29399 | -115.70481 | 10135 ft | 267 kts | 316° |
| 2026-05-09 05:23 | 43.30745 | -115.72179 | 9902 ft | 261 kts | 316° |
| 2026-05-09 05:23 | 43.32082 | -115.73873 | 9547 ft | 261 kts | 316° |
| 2026-05-09 05:23 | 43.33408 | -115.75564 | 9199 ft | 260 kts | 316° |
| 2026-05-09 05:23 | 43.34733 | -115.77262 | 8849 ft | 260 kts | 316° |
| 2026-05-09 05:24 | 43.36057 | -115.78962 | 8513 ft | 261 kts | 316° |
| 2026-05-09 05:24 | 43.37360 | -115.80638 | 8365 ft | 252 kts | 316° |
| 2026-05-09 05:24 | 43.38590 | -115.82322 | 8132 ft | 248 kts | 310° |
| 2026-05-09 05:24 | 43.39652 | -115.84105 | 8081 ft | 237 kts | 308° |
| 2026-05-09 05:25 | 43.40666 | -115.85860 | 7994 ft | 230 kts | 308° |
| 2026-05-09 05:25 | 43.41638 | -115.87525 | 7858 ft | 216 kts | 308° |
| 2026-05-09 05:25 | 43.43395 | -115.90504 | 7558 ft | 188 kts | 309° |
| 2026-05-09 05:26 | 43.44196 | -115.91864 | 7371 ft | 178 kts | 308° |
| 2026-05-09 05:26 | 43.44907 | -115.93210 | 7156 ft | 169 kts | 304° |
| 2026-05-09 05:26 | 43.45563 | -115.94506 | 6940 ft | 161 kts | 304° |
| 2026-05-09 05:26 | 43.46278 | -115.95918 | 6947 ft | 198 kts | 304° |
| 2026-05-09 05:27 | 43.47023 | -115.97388 | 7147 ft | 176 kts | 304° |
| 2026-05-09 05:27 | 43.47691 | -115.98703 | 6974 ft | 157 kts | 304° |
| 2026-05-09 05:27 | 43.48299 | -115.99898 | 6558 ft | 151 kts | 304° |
| 2026-05-09 05:27 | 43.48899 | -116.01076 | 6070 ft | 151 kts | 304° |
| 2026-05-09 05:28 | 43.49487 | -116.02293 | 5552 ft | 151 kts | 297° |
| 2026-05-09 05:28 | 43.49939 | -116.03565 | 5166 ft | 146 kts | 295° |
| 2026-05-09 05:28 | 43.50367 | -116.04820 | 4931 ft | 145 kts | 295° |
| 2026-05-09 05:28 | 43.50798 | -116.06085 | 4900 ft | 146 kts | 295° |
| 2026-05-09 05:29 | 43.51225 | -116.07339 | 4899 ft | 144 kts | 295° |
| 2026-05-09 05:29 | 43.51651 | -116.08593 | 4858 ft | 147 kts | 295° |
| 2026-05-09 05:29 | 43.52093 | -116.09884 | 4603 ft | 147 kts | 295° |
| 2026-05-09 05:29 | 43.52523 | -116.11140 | 4397 ft | 143 kts | 295° |
| 2026-05-09 05:30 | 43.52943 | -116.12367 | 4209 ft | 141 kts | 295° |
| 2026-05-09 05:30 | 43.53359 | -116.13605 | 4002 ft | 144 kts | 295° |
| 2026-05-09 05:30 | 43.53788 | -116.14852 | 3811 ft | 144 kts | 295° |
| 2026-05-09 05:30 | 43.54210 | -116.16105 | 3622 ft | 143 kts | 295° |
| 2026-05-09 05:31 | 43.54634 | -116.17350 | 3442 ft | 142 kts | 295° |
| 2026-05-09 05:31 | 43.55051 | -116.18564 | 3260 ft | 138 kts | 295° |
| 2026-05-09 05:31 | 43.55470 | -116.19769 | 3096 ft | 141 kts | 295° |
| 2026-05-09 05:31 | 43.55888 | -116.21002 | 2924 ft | 141 kts | 295° |
| 2026-05-09 05:32 | 43.56280 | -116.22142 | 2879 ft | 110 kts | 295° |
| 2026-05-09 05:32 | 43.56513 | -116.22822 | 2883 ft | 50 kts | 295° |
| 2026-05-09 05:32 | 43.56623 | -116.23136 | 2881 ft | 16 kts | 307° |
| 2026-05-09 05:32 | 43.56718 | -116.23145 | 2880 ft | 15 kts | 25° |
| 2026-05-09 05:33 | 43.56831 | -116.23073 | 2878 ft | 21 kts | 25° |
| 2026-05-09 05:33 | 43.56904 | -116.23018 | 2880 ft | 6 kts | 61° |
| 2026-05-09 05:33 | 43.56893 | -116.22964 | 2880 ft | 6 kts | 119° |
| 2026-05-09 05:33 | 43.56876 | -116.22910 | 2880 ft | 7 kts | 112° |
| 2026-05-09 05:34 | 43.56842 | -116.22812 | 2880 ft | 15 kts | 116° |
| 2026-05-09 05:34 | 43.56786 | -116.22647 | 2880 ft | 22 kts | 115° |
| 2026-05-09 05:34 | 43.56722 | -116.22460 | 2880 ft | 21 kts | 114° |
| 2026-05-09 05:34 | 43.56661 | -116.22279 | 2880 ft | 21 kts | 115° |
| 2026-05-09 05:35 | 43.56649 | -116.22154 | 2880 ft | 12 kts | 50° |
| 2026-05-09 05:35 | 43.56669 | -116.22060 | 2880 ft | 8 kts | 65° |
| 2026-05-09 05:35 | 43.56700 | -116.22028 | 2880 ft | 2 kts | 31° |
| 2026-05-09 05:35 | 43.56708 | -116.22021 | 2880 ft | 1 kts | 31° |
| 2026-05-09 05:36 | 43.56709 | -116.22020 | 2880 ft | 0 kts | 31° |